4NA3 weather

Peterson Airstrip
Antler, North Dakota, United States

Public forecast

Using degrees Fahrenheit for public forecast. Weather courtesy of forecast.io.

METAR (pilot weather report)

Closest report is Minot Air Force Base, 26.6 nm (49.3 km) S. Retrieved 2019/07/19 12:56 UTC (29 minutes ago):

KMIB 191256Z AUTO 27007KT 10SM FEW130 16/12 A2969 RMK AO2 SLP053 T01600118 $

TAF (pilot weather forecast)

Closest forecast is Minot Air Force Base, 26.6 nm (49.3 km) S. Retrieved 2019/07/19 09:06 UTC (4 hours ago):

TAF KMIB 190900Z 1909/2015 25009KT 9999 OVC100 QNH2961INS BECMG 1918/1919 27015G20KT 9999 FEW090 QNH2969INS BECMG 2000/2001 28006KT 9999 FEW150 QNH2974INS BECMG 2010/2011 31009KT 9999 BKN100 QNH2980INS TX27/1922Z TN17/1910Z